createdAt,value
2024-04-09T00:00:42.626Z,2.00
2024-04-09T00:11:23.912Z,1.70
2024-04-09T00:16:30.035Z,1.90
2024-04-09T00:21:34.071Z,1.80
2024-04-09T00:26:37.351Z,1.60
2024-04-09T00:31:40.290Z,1.90
2024-04-09T00:36:43.298Z,1.90
2024-04-09T00:41:46.726Z,2.00
2024-04-09T00:46:49.627Z,2.20
2024-04-09T00:51:54.117Z,1.60
2024-04-09T00:56:57.907Z,1.80
2024-04-09T01:07:09.055Z,1.80
2024-04-09T01:12:11.950Z,2.00
2024-04-09T01:17:15.062Z,2.20
2024-04-09T01:22:18.269Z,1.50
2024-04-09T01:27:23.656Z,1.60
2024-04-09T01:32:26.748Z,2.20
2024-04-09T01:37:29.781Z,2.40
2024-04-09T01:42:33.064Z,2.90
2024-04-09T01:47:36.155Z,3.60
2024-04-09T01:52:41.937Z,3.40
2024-04-09T01:57:45.609Z,3.70
2024-04-09T02:02:53.734Z,3.00
2024-04-09T02:07:57.220Z,3.10
2024-04-09T02:13:00.140Z,3.10
2024-04-09T02:18:03.446Z,4.00
2024-04-09T02:23:06.386Z,3.30
2024-04-09T02:28:09.704Z,3.30
2024-04-09T02:33:14.487Z,3.60
2024-04-09T02:38:17.553Z,4.40
2024-04-09T02:43:22.519Z,3.70
2024-04-09T02:48:26.164Z,3.70
2024-04-09T02:53:29.186Z,3.90
2024-04-09T02:58:33.453Z,3.50
2024-04-09T03:03:37.535Z,4.00
2024-04-09T03:08:42.261Z,4.10
2024-04-09T03:13:47.333Z,4.20
2024-04-09T03:18:52.210Z,3.90
2024-04-09T03:23:55.593Z,4.50
2024-04-09T03:28:58.620Z,5.10
2024-04-09T03:34:02.081Z,5.00
2024-04-09T03:39:05.799Z,5.30
2024-04-09T03:44:09.031Z,4.70
2024-04-09T03:49:12.209Z,4.80
2024-04-09T03:54:15.523Z,5.90
2024-04-09T03:59:18.546Z,5.30
2024-04-09T04:04:22.205Z,4.90
2024-04-09T04:09:25.406Z,4.60
2024-04-09T04:14:28.906Z,5.60
2024-04-09T04:19:31.854Z,5.40
2024-04-09T04:24:34.971Z,5.40
2024-04-09T04:29:40.311Z,6.20
2024-04-09T04:34:44.442Z,5.80
2024-04-09T04:39:47.901Z,6.10
2024-04-09T04:44:50.993Z,5.50
2024-04-09T04:49:54.032Z,7.10
2024-04-09T04:54:58.712Z,5.70
2024-04-09T05:00:10.469Z,6.30
2024-04-09T05:05:13.861Z,6.50
2024-04-09T05:10:18.229Z,7.50
2024-04-09T05:15:21.719Z,6.70
2024-04-09T05:20:28.400Z,7.10
2024-04-09T05:25:33.684Z,5.70
2024-04-09T05:30:36.909Z,5.80
2024-04-09T05:35:39.844Z,5.00
2024-04-09T05:40:42.784Z,5.10
2024-04-09T05:45:45.810Z,5.70
2024-04-09T05:50:48.814Z,5.50
2024-04-09T05:55:56.105Z,12.90
2024-04-09T06:01:00.533Z,15.80
2024-04-09T06:06:03.935Z,10.50
2024-04-09T06:11:06.875Z,6.30
2024-04-09T06:16:09.762Z,7.20
2024-04-09T06:21:13.222Z,10.60
2024-04-09T06:26:19.801Z,6.00
2024-04-09T06:31:22.760Z,5.60
2024-04-09T06:36:27.873Z,4.50
2024-04-09T06:41:32.156Z,3.40
2024-04-09T06:46:35.063Z,3.50
2024-04-09T06:51:38.053Z,4.30
2024-04-09T06:56:40.911Z,4.10
2024-04-09T07:01:43.973Z,4.00
2024-04-09T07:06:47.338Z,3.20
2024-04-09T07:11:50.232Z,3.10
2024-04-09T07:16:53.288Z,3.30
2024-04-09T07:21:56.419Z,3.50
2024-04-09T07:26:59.342Z,3.20
2024-04-09T07:32:03.566Z,3.60
2024-04-09T07:37:06.501Z,3.10
2024-04-09T07:42:09.400Z,3.20
2024-04-09T07:47:12.464Z,3.80
2024-04-09T07:52:15.492Z,4.00
2024-04-09T07:57:18.785Z,3.60
2024-04-09T08:07:26.639Z,2.70
2024-04-09T08:12:29.808Z,3.60
2024-04-09T08:17:33.090Z,12.00
2024-04-09T08:22:36.361Z,5.00
2024-04-09T08:27:40.149Z,4.30
2024-04-09T08:32:43.519Z,3.60
2024-04-09T08:42:57.852Z,17.50
2024-04-09T08:48:06.352Z,4.00
2024-04-09T08:53:09.502Z,3.30
2024-04-09T08:58:13.582Z,3.20
2024-04-09T09:03:16.868Z,2.70
2024-04-09T09:08:19.968Z,2.60
2024-04-09T09:13:22.996Z,3.30
2024-04-09T09:18:26.335Z,2.80
2024-04-09T09:23:29.628Z,3.10
2024-04-09T09:28:32.619Z,2.70
2024-04-09T09:33:40.468Z,2.40
2024-04-09T09:38:45.525Z,3.20
2024-04-09T09:43:48.616Z,2.90
2024-04-09T09:48:54.742Z,2.50
2024-04-09T09:53:57.820Z,1.90
2024-04-09T09:59:02.611Z,2.40
2024-04-09T10:04:05.771Z,2.30
2024-04-09T10:09:09.360Z,2.30
2024-04-09T10:14:25.507Z,2.00
2024-04-09T10:19:36.187Z,2.30
2024-04-09T10:24:40.319Z,2.10
2024-04-09T10:29:53.084Z,1.90
2024-04-09T10:34:56.386Z,2.30
2024-04-09T10:40:00.180Z,2.00
2024-04-09T10:45:05.597Z,2.20
2024-04-09T10:50:10.150Z,1.90
2024-04-09T10:55:15.043Z,2.30
2024-04-09T11:00:19.348Z,2.20
2024-04-09T11:05:22.375Z,1.80
2024-04-09T11:10:25.386Z,2.00
2024-04-09T11:15:28.383Z,2.00
2024-04-09T11:20:31.308Z,2.30
2024-04-09T11:30:43.598Z,2.00
2024-04-09T11:35:53.137Z,2.40
2024-04-09T11:40:56.128Z,2.20
2024-04-09T11:46:03.597Z,2.40
2024-04-09T11:51:06.551Z,2.10
2024-04-09T11:56:09.541Z,2.20
2024-04-09T12:01:12.623Z,2.20
2024-04-09T12:06:15.806Z,2.70
2024-04-09T12:11:21.980Z,2.60
2024-04-09T12:16:25.714Z,2.40
2024-04-09T12:21:29.081Z,2.20
2024-04-09T12:26:32.026Z,2.60
2024-04-09T12:41:42.335Z,3.00
2024-04-09T12:46:45.508Z,2.30
2024-04-09T12:51:48.891Z,2.00
2024-04-09T12:56:52.233Z,2.10
2024-04-09T13:01:55.333Z,1.80
2024-04-09T13:06:59.910Z,2.40
2024-04-09T13:12:03.433Z,2.00
2024-04-09T13:17:08.416Z,1.70
2024-04-09T13:22:11.977Z,2.40
2024-04-09T13:27:16.302Z,1.90
2024-04-09T13:32:20.976Z,2.60
2024-04-09T13:37:23.950Z,2.30
2024-04-09T13:42:26.891Z,1.80
2024-04-09T13:52:36.422Z,2.30
2024-04-09T13:57:39.367Z,2.40
2024-04-09T14:02:43.570Z,2.20
2024-04-09T14:07:47.486Z,2.60
2024-04-09T14:12:50.447Z,2.20
2024-04-09T14:17:56.584Z,2.20
2024-04-09T14:22:59.673Z,1.70
2024-04-09T14:28:02.535Z,2.20
2024-04-09T14:43:13.297Z,2.10
2024-04-09T14:48:16.543Z,2.10
2024-04-09T14:53:19.691Z,2.40
2024-04-09T14:58:22.671Z,2.50
2024-04-09T15:08:30.502Z,3.40
2024-04-09T15:13:33.561Z,2.40
2024-04-09T15:18:36.805Z,1.70
2024-04-09T15:23:42.080Z,2.30
2024-04-09T15:28:47.982Z,2.50
2024-04-09T15:33:54.431Z,1.70
2024-04-09T15:39:00.537Z,2.20
2024-04-09T15:44:04.887Z,2.40
2024-04-09T15:49:08.140Z,2.30
2024-04-09T15:54:11.392Z,2.70
2024-04-09T15:59:15.246Z,2.50
2024-04-09T16:04:18.247Z,2.50
2024-04-09T16:14:24.716Z,3.00
2024-04-09T16:19:28.568Z,2.90
2024-04-09T16:24:32.435Z,2.80
2024-04-09T16:29:35.651Z,2.90
2024-04-09T16:34:39.857Z,2.80
2024-04-09T16:39:44.311Z,2.80
2024-04-09T16:44:47.892Z,3.00
2024-04-09T16:49:51.525Z,2.80
2024-04-09T16:54:54.719Z,3.00
2024-04-09T16:59:57.955Z,3.30
2024-04-09T17:05:01.347Z,3.30
2024-04-09T17:10:11.228Z,3.30
2024-04-09T17:15:16.342Z,3.40
2024-04-09T17:20:20.801Z,3.50
2024-04-09T17:25:24.519Z,3.40
2024-04-09T17:30:28.282Z,4.40
2024-04-09T17:35:34.462Z,4.20
2024-04-09T17:40:37.832Z,4.40
2024-04-09T17:50:44.031Z,4.70
2024-04-09T17:55:46.958Z,5.90
2024-04-09T18:00:50.629Z,8.00
2024-04-09T18:05:59.410Z,5.30
2024-04-09T18:11:04.506Z,4.60
2024-04-09T18:16:12.818Z,5.40
2024-04-09T18:21:15.938Z,5.00
2024-04-09T18:26:21.480Z,4.40
2024-04-09T18:31:25.792Z,4.40
2024-04-09T18:36:28.662Z,4.90
2024-04-09T18:41:31.754Z,5.50
2024-04-09T18:46:34.855Z,7.30
2024-04-09T18:51:37.985Z,6.10
2024-04-09T18:56:43.521Z,5.10
2024-04-09T19:01:46.483Z,4.70
2024-04-09T19:06:49.429Z,5.30
2024-04-09T19:11:58.178Z,8.30
2024-04-09T19:17:02.255Z,6.20
2024-04-09T19:22:05.524Z,6.40
2024-04-09T19:27:10.063Z,7.40
2024-04-09T19:32:13.055Z,6.60
2024-04-09T19:37:17.234Z,6.60
2024-04-09T19:42:24.157Z,6.30
2024-04-09T19:47:27.258Z,5.40
2024-04-09T19:52:30.290Z,4.70
2024-04-09T19:57:33.223Z,5.10
2024-04-09T20:02:38.720Z,4.30
2024-04-09T20:07:41.802Z,4.10
2024-04-09T20:12:45.145Z,4.30
2024-04-09T20:17:48.237Z,3.90
2024-04-09T20:22:51.790Z,3.40
2024-04-09T20:27:54.959Z,3.70
2024-04-09T20:32:58.404Z,3.30
2024-04-09T20:43:07.238Z,3.50
2024-04-09T20:48:10.764Z,3.10
2024-04-09T20:53:14.295Z,3.40
2024-04-09T20:58:17.182Z,3.40
2024-04-09T21:03:20.182Z,4.30
2024-04-09T21:08:23.747Z,2.60
2024-04-09T21:13:26.674Z,2.90
2024-04-09T21:18:30.093Z,3.10
2024-04-09T21:23:33.593Z,3.20
2024-04-09T21:28:36.659Z,2.90
2024-04-09T21:33:39.843Z,2.70
2024-04-09T21:38:42.869Z,2.80
2024-04-09T21:43:45.957Z,3.10
2024-04-09T21:48:49.178Z,2.90
2024-04-09T21:53:53.574Z,2.80
2024-04-09T21:58:56.814Z,3.30
2024-04-09T22:04:00.056Z,3.00
2024-04-09T22:09:03.121Z,2.90
2024-04-09T22:14:06.288Z,3.10
2024-04-09T22:19:09.833Z,2.90
2024-04-09T22:24:13.424Z,3.20
2024-04-09T22:29:16.409Z,3.00
2024-04-09T22:34:20.652Z,3.00
2024-04-09T22:39:23.703Z,2.60
2024-04-09T22:44:26.780Z,2.70
2024-04-09T22:49:30.240Z,2.80
2024-04-09T22:54:33.540Z,3.10
2024-04-09T22:59:36.567Z,3.40
2024-04-09T23:04:39.811Z,2.70
2024-04-09T23:09:45.062Z,2.90
2024-04-09T23:14:51.388Z,3.50
2024-04-09T23:19:54.893Z,3.00
2024-04-09T23:24:57.975Z,3.00
2024-04-09T23:30:00.887Z,3.00
2024-04-09T23:35:04.258Z,3.20
2024-04-09T23:40:08.108Z,3.90
2024-04-09T23:50:14.090Z,3.60
2024-04-09T23:55:17.131Z,3.50
